createdAt,value
2018-03-19T00:00:03.371Z,985.54
2018-03-19T00:01:03.368Z,985.50
2018-03-19T00:02:03.353Z,985.57
2018-03-19T00:03:03.346Z,985.62
2018-03-19T00:04:03.347Z,985.57
2018-03-19T00:05:24.337Z,985.60
2018-03-19T00:06:03.332Z,985.59
2018-03-19T00:07:03.315Z,985.58
2018-03-19T00:08:03.315Z,985.56
2018-03-19T00:09:03.325Z,985.57
2018-03-19T00:10:03.300Z,985.56
2018-03-19T00:11:24.305Z,985.58
2018-03-19T00:12:03.291Z,985.56
2018-03-19T00:13:03.278Z,985.62
2018-03-19T00:14:03.276Z,985.58
2018-03-19T00:15:03.265Z,985.62
2018-03-19T00:16:03.259Z,985.64
2018-03-19T00:17:24.253Z,985.60
2018-03-19T00:18:03.237Z,985.63
2018-03-19T00:19:03.234Z,985.60
2018-03-19T00:20:03.257Z,985.61
2018-03-19T00:21:03.223Z,985.57
2018-03-19T00:22:03.217Z,985.63
2018-03-19T00:23:24.212Z,985.61
2018-03-19T00:24:03.211Z,985.61
2018-03-19T00:25:03.199Z,985.60
2018-03-19T00:26:03.191Z,985.63
2018-03-19T00:27:03.182Z,985.62
2018-03-19T00:28:03.180Z,985.55
2018-03-19T00:29:24.179Z,985.58
2018-03-19T00:30:03.159Z,985.56
2018-03-19T00:31:03.152Z,985.57
2018-03-19T00:32:03.146Z,985.59
2018-03-19T00:33:03.135Z,985.58
2018-03-19T00:34:03.139Z,985.55
2018-03-19T00:35:24.132Z,985.56
2018-03-19T00:36:03.121Z,985.56
2018-03-19T00:37:03.115Z,985.59
2018-03-19T00:38:03.107Z,985.60
2018-03-19T00:39:03.105Z,985.60
2018-03-19T00:40:03.095Z,985.56
2018-03-19T00:41:24.098Z,985.51
2018-03-19T00:42:03.083Z,985.55
2018-03-19T00:43:03.068Z,985.52
2018-03-19T00:44:03.071Z,985.55
2018-03-19T00:45:03.060Z,985.55
2018-03-19T00:46:03.055Z,985.51
2018-03-19T00:47:24.045Z,985.53
2018-03-19T00:48:03.035Z,985.54
2018-03-19T00:49:03.031Z,985.51
2018-03-19T00:50:03.030Z,985.52
2018-03-19T00:51:03.020Z,985.51
2018-03-19T00:52:03.010Z,985.50
2018-03-19T00:53:24.018Z,985.50
2018-03-19T00:54:02.991Z,985.44
2018-03-19T00:55:02.993Z,985.42
2018-03-19T00:56:03.004Z,985.44
2018-03-19T00:57:02.989Z,985.43
2018-03-19T00:58:02.968Z,985.41
2018-03-19T00:59:23.967Z,985.42
2018-03-19T01:00:02.957Z,985.43
2018-03-19T01:01:02.943Z,985.42
2018-03-19T01:02:02.940Z,985.44
2018-03-19T01:03:02.929Z,985.39
2018-03-19T01:04:02.926Z,985.37
2018-03-19T01:05:23.929Z,985.36
2018-03-19T01:06:02.915Z,985.33
2018-03-19T01:07:02.922Z,985.36
2018-03-19T01:08:02.903Z,985.32
2018-03-19T01:09:02.888Z,985.31
2018-03-19T01:10:02.897Z,985.30
2018-03-19T01:11:23.884Z,985.30
2018-03-19T01:12:02.869Z,985.26
2018-03-19T01:13:02.888Z,985.30
2018-03-19T01:14:02.853Z,985.27
2018-03-19T01:15:02.875Z,985.30
2018-03-19T01:16:02.843Z,985.30
2018-03-19T01:17:23.839Z,985.27
2018-03-19T01:18:02.824Z,985.25
2018-03-19T01:19:02.829Z,985.26
2018-03-19T01:20:02.835Z,985.24
2018-03-19T01:21:02.814Z,985.26
2018-03-19T01:22:02.810Z,985.23
2018-03-19T01:23:23.800Z,985.23
2018-03-19T01:24:02.792Z,985.24
2018-03-19T01:25:02.779Z,985.25
2018-03-19T01:26:02.772Z,985.24
2018-03-19T01:27:02.767Z,985.25
2018-03-19T01:28:02.760Z,985.24
2018-03-19T01:29:23.760Z,985.24
2018-03-19T01:30:02.751Z,985.24
2018-03-19T01:31:02.741Z,985.24
2018-03-19T01:32:02.734Z,985.25
2018-03-19T01:33:02.727Z,985.25
2018-03-19T01:34:02.723Z,985.23
2018-03-19T01:35:23.719Z,985.28
2018-03-19T01:36:02.710Z,985.22
2018-03-19T01:37:02.703Z,985.23
2018-03-19T01:38:02.691Z,985.25
2018-03-19T01:39:02.693Z,985.26
2018-03-19T01:40:02.677Z,985.27
2018-03-19T01:41:23.673Z,985.23
2018-03-19T01:42:02.666Z,985.24
2018-03-19T01:43:02.654Z,985.23
2018-03-19T01:44:02.654Z,985.23
2018-03-19T01:45:02.646Z,985.26
2018-03-19T01:46:02.636Z,985.23
2018-03-19T01:47:23.642Z,985.26
2018-03-19T01:48:02.622Z,985.23
2018-03-19T01:49:02.653Z,985.28
2018-03-19T01:50:02.617Z,985.22
2018-03-19T01:51:02.604Z,985.20
2018-03-19T01:52:02.597Z,985.24
2018-03-19T01:53:23.598Z,985.20
2018-03-19T01:54:02.587Z,985.19
2018-03-19T01:55:02.579Z,985.19
2018-03-19T01:56:02.564Z,985.18
2018-03-19T01:57:02.563Z,985.22
2018-03-19T01:58:02.554Z,985.21
2018-03-19T01:59:23.589Z,985.18
2018-03-19T02:00:02.548Z,985.20
2018-03-19T02:01:02.533Z,985.21
2018-03-19T02:02:02.531Z,985.22
2018-03-19T02:03:02.518Z,985.22
2018-03-19T02:04:02.528Z,985.19
2018-03-19T02:05:23.517Z,985.22
2018-03-19T02:06:02.503Z,985.24
2018-03-19T02:07:02.516Z,985.25
2018-03-19T02:08:02.505Z,985.26
2018-03-19T02:09:02.519Z,985.21
2018-03-19T02:10:02.511Z,985.21
2018-03-19T02:11:23.504Z,985.25
2018-03-19T02:12:02.468Z,985.20
2018-03-19T02:13:02.465Z,985.19
2018-03-19T02:14:02.460Z,985.18
2018-03-19T02:15:02.447Z,985.20
2018-03-19T02:16:02.446Z,985.24
2018-03-19T02:17:23.440Z,985.17
2018-03-19T02:18:02.438Z,985.19
2018-03-19T02:19:02.440Z,985.19
2018-03-19T02:20:02.421Z,985.18
2018-03-19T02:21:02.413Z,985.16
2018-03-19T02:22:02.398Z,985.18
2018-03-19T02:23:23.406Z,985.12
2018-03-19T02:24:02.397Z,985.12
2018-03-19T02:25:02.374Z,985.15
2018-03-19T02:26:02.361Z,985.14
2018-03-19T02:27:02.364Z,985.16
2018-03-19T02:28:02.351Z,985.16
2018-03-19T02:29:23.354Z,985.17
2018-03-19T02:30:02.348Z,985.14
2018-03-19T02:31:02.331Z,985.12
2018-03-19T02:32:02.385Z,985.15
2018-03-19T02:33:02.373Z,985.15
2018-03-19T02:34:02.321Z,985.16
2018-03-19T02:35:23.316Z,985.14
2018-03-19T02:36:02.297Z,985.17
2018-03-19T02:37:02.292Z,985.15
2018-03-19T02:38:02.341Z,985.18
2018-03-19T02:39:02.278Z,985.17
2018-03-19T02:40:02.272Z,985.17
2018-03-19T02:41:23.267Z,985.18
2018-03-19T02:42:02.256Z,985.14
2018-03-19T02:43:02.254Z,985.16
2018-03-19T02:44:02.247Z,985.12
2018-03-19T02:45:02.244Z,985.12
2018-03-19T02:46:02.237Z,985.13
2018-03-19T02:47:23.241Z,985.13
2018-03-19T02:48:02.221Z,985.18
2018-03-19T02:49:02.217Z,985.12
2018-03-19T02:50:02.211Z,985.16
2018-03-19T02:51:02.200Z,985.18
2018-03-19T02:52:02.191Z,985.16
2018-03-19T02:53:23.191Z,985.14
2018-03-19T02:54:02.182Z,985.22
2018-03-19T02:55:02.171Z,985.17
2018-03-19T02:56:02.169Z,985.17
2018-03-19T02:57:02.157Z,985.20
2018-03-19T02:58:02.150Z,985.18
2018-03-19T02:59:23.170Z,985.17
2018-03-19T03:00:02.143Z,985.20
2018-03-19T03:01:02.138Z,985.17
2018-03-19T03:02:02.125Z,985.19
2018-03-19T03:03:02.120Z,985.21
2018-03-19T03:04:02.114Z,985.18
2018-03-19T03:05:23.116Z,985.22
2018-03-19T03:06:02.097Z,985.21
2018-03-19T03:07:02.091Z,985.25
2018-03-19T03:08:02.088Z,985.23
2018-03-19T03:09:02.077Z,985.17
2018-03-19T03:10:02.076Z,985.24
2018-03-19T03:11:23.078Z,985.26
2018-03-19T03:12:02.052Z,985.20
2018-03-19T03:13:02.046Z,985.23
2018-03-19T03:14:02.062Z,985.22
2018-03-19T03:15:02.046Z,985.23
2018-03-19T03:16:02.039Z,985.19
2018-03-19T03:17:23.042Z,985.20
2018-03-19T03:18:02.008Z,985.22
2018-03-19T03:19:02.013Z,985.20
2018-03-19T03:20:02.004Z,985.20
2018-03-19T03:21:02.001Z,985.21
2018-03-19T03:22:01.986Z,985.18
2018-03-19T03:23:22.985Z,985.15
2018-03-19T03:24:01.975Z,985.16
2018-03-19T03:25:01.968Z,985.19
2018-03-19T03:26:01.960Z,985.20
2018-03-19T03:27:01.954Z,985.18
2018-03-19T03:28:01.953Z,985.24
2018-03-19T03:29:22.947Z,985.18
2018-03-19T03:30:01.939Z,985.20
2018-03-19T03:31:01.936Z,985.16
2018-03-19T03:32:01.927Z,985.22
2018-03-19T03:33:01.914Z,985.21
2018-03-19T03:34:01.907Z,985.17
2018-03-19T03:35:22.900Z,985.19
2018-03-19T03:36:01.895Z,985.17
2018-03-19T03:37:01.884Z,985.18
2018-03-19T03:38:01.877Z,985.15
2018-03-19T03:39:01.872Z,985.15
2018-03-19T03:40:01.865Z,985.12
2018-03-19T03:41:22.861Z,985.14
2018-03-19T03:42:01.862Z,985.15
2018-03-19T03:43:01.851Z,985.16
2018-03-19T03:44:01.865Z,985.15
2018-03-19T03:45:01.834Z,985.15
2018-03-19T03:46:01.832Z,985.13
2018-03-19T03:47:22.852Z,985.16
2018-03-19T03:48:01.812Z,985.16
2018-03-19T03:49:01.805Z,985.11
2018-03-19T03:50:01.795Z,985.11
2018-03-19T03:51:01.787Z,985.08
2018-03-19T03:52:01.791Z,985.16
2018-03-19T03:53:22.784Z,985.11
2018-03-19T03:54:01.766Z,985.13
2018-03-19T03:55:01.760Z,985.13
2018-03-19T03:56:01.764Z,985.13
2018-03-19T03:57:01.754Z,985.10
2018-03-19T03:58:01.756Z,985.16
2018-03-19T03:59:22.748Z,985.12
2018-03-19T04:00:01.737Z,985.15
2018-03-19T04:01:01.732Z,985.15
2018-03-19T04:02:01.718Z,985.12
2018-03-19T04:03:01.707Z,985.14
2018-03-19T04:04:01.703Z,985.16
2018-03-19T04:05:22.696Z,985.12
2018-03-19T04:06:01.689Z,985.12
2018-03-19T04:07:01.685Z,985.11
2018-03-19T04:08:01.673Z,985.14
2018-03-19T04:09:01.676Z,985.18
2018-03-19T04:10:01.668Z,985.14
2018-03-19T04:11:22.655Z,985.17
2018-03-19T04:12:01.648Z,985.20
2018-03-19T04:13:01.641Z,985.19
2018-03-19T04:14:01.639Z,985.20
2018-03-19T04:15:01.634Z,985.21
2018-03-19T04:16:01.636Z,985.21
2018-03-19T04:17:22.634Z,985.21
2018-03-19T04:18:01.628Z,985.24
2018-03-19T04:19:01.598Z,985.22
2018-03-19T04:20:01.594Z,985.21
2018-03-19T04:21:01.610Z,985.21
2018-03-19T04:22:01.588Z,985.23
2018-03-19T04:23:22.579Z,985.23
2018-03-19T04:24:01.582Z,985.24
2018-03-19T04:25:01.573Z,985.25
2018-03-19T04:26:01.571Z,985.26
2018-03-19T04:27:01.564Z,985.22
2018-03-19T04:28:01.547Z,985.26
2018-03-19T04:29:22.551Z,985.29
2018-03-19T04:30:01.540Z,985.28
2018-03-19T04:31:01.522Z,985.31
2018-03-19T04:32:01.513Z,985.30
2018-03-19T04:33:01.505Z,985.31
2018-03-19T04:34:01.499Z,985.32
2018-03-19T04:35:22.497Z,985.31
2018-03-19T04:36:01.506Z,985.34
2018-03-19T04:37:01.485Z,985.32
2018-03-19T04:38:01.472Z,985.32
2018-03-19T04:39:01.640Z,985.33
2018-03-19T04:40:01.493Z,985.34
2018-03-19T04:41:22.470Z,985.27
2018-03-19T04:42:01.463Z,985.36
2018-03-19T04:43:01.490Z,985.34
2018-03-19T04:44:01.444Z,985.36
2018-03-19T04:45:01.424Z,985.33
2018-03-19T04:46:01.424Z,985.28
2018-03-19T04:47:22.414Z,985.27
2018-03-19T04:48:01.401Z,985.27
2018-03-19T04:49:01.396Z,985.30
2018-03-19T04:50:01.394Z,985.34
2018-03-19T04:51:01.384Z,985.34
2018-03-19T04:52:01.378Z,985.35
2018-03-19T04:53:22.377Z,985.34
2018-03-19T04:54:01.370Z,985.37
2018-03-19T04:55:01.360Z,985.37
2018-03-19T04:56:01.355Z,985.33
2018-03-19T04:57:01.349Z,985.36
2018-03-19T04:58:01.327Z,985.37
2018-03-19T04:59:22.333Z,985.40
2018-03-19T05:00:01.317Z,985.41
2018-03-19T05:01:01.307Z,985.41
2018-03-19T05:02:01.301Z,985.44
2018-03-19T05:03:01.324Z,985.49
2018-03-19T05:04:01.316Z,985.50
2018-03-19T05:05:22.295Z,985.46
2018-03-19T05:06:01.270Z,985.46
2018-03-19T05:07:01.267Z,985.47
2018-03-19T05:08:01.260Z,985.51
2018-03-19T05:09:01.248Z,985.45
2018-03-19T05:10:01.244Z,985.48
2018-03-19T05:11:22.235Z,985.46
2018-03-19T05:12:01.218Z,985.45
2018-03-19T05:13:01.211Z,985.48
2018-03-19T05:14:01.207Z,985.49
2018-03-19T05:15:01.246Z,985.43
2018-03-19T05:16:01.194Z,985.48
2018-03-19T05:17:22.192Z,985.46
2018-03-19T05:18:01.173Z,985.48
2018-03-19T05:19:01.173Z,985.48
2018-03-19T05:20:01.156Z,985.49
2018-03-19T05:21:01.149Z,985.48
2018-03-19T05:22:01.141Z,985.50
2018-03-19T05:23:22.140Z,985.46
2018-03-19T05:24:01.127Z,985.46
2018-03-19T05:25:01.123Z,985.49
2018-03-19T05:26:01.112Z,985.46
2018-03-19T05:27:01.104Z,985.48
2018-03-19T05:28:01.102Z,985.54
2018-03-19T05:29:22.092Z,985.47
2018-03-19T05:30:01.075Z,985.48
2018-03-19T05:31:01.071Z,985.45
2018-03-19T05:32:01.062Z,985.46
2018-03-19T05:33:01.052Z,985.44
2018-03-19T05:34:01.043Z,985.48
2018-03-19T05:35:22.039Z,985.48
2018-03-19T05:36:01.030Z,985.51
2018-03-19T05:37:01.025Z,985.48
2018-03-19T05:38:01.020Z,985.49
2018-03-19T05:39:01.009Z,985.52
2018-03-19T05:40:01.005Z,985.52
2018-03-19T05:41:21.994Z,985.55
2018-03-19T05:42:00.979Z,985.59
2018-03-19T05:43:00.971Z,985.56
2018-03-19T05:44:00.964Z,985.62
2018-03-19T05:45:00.954Z,985.61
2018-03-19T05:46:00.946Z,985.66
2018-03-19T05:47:21.949Z,985.65
2018-03-19T05:48:00.931Z,985.64
2018-03-19T05:49:00.943Z,985.65
2018-03-19T05:50:00.936Z,985.60
2018-03-19T05:51:00.919Z,985.66
2018-03-19T05:52:00.907Z,985.62
2018-03-19T05:53:21.958Z,985.63
2018-03-19T05:54:00.882Z,985.66
2018-03-19T05:55:00.883Z,985.68
2018-03-19T05:56:00.867Z,985.69
2018-03-19T05:57:00.864Z,985.67
2018-03-19T05:58:00.854Z,985.68
2018-03-19T05:59:21.849Z,985.70
2018-03-19T06:00:00.835Z,985.72
2018-03-19T06:01:00.832Z,985.69
2018-03-19T06:02:00.828Z,985.73
2018-03-19T06:03:00.818Z,985.74
2018-03-19T06:04:00.820Z,985.81
2018-03-19T06:05:21.854Z,985.77
2018-03-19T06:06:00.795Z,985.76
2018-03-19T06:07:00.779Z,985.80
2018-03-19T06:08:00.771Z,985.81
2018-03-19T06:09:00.765Z,985.82
2018-03-19T06:10:00.754Z,985.83
2018-03-19T06:11:21.761Z,985.87
2018-03-19T06:12:00.740Z,985.86
2018-03-19T06:13:00.735Z,985.89
2018-03-19T06:14:00.727Z,985.89
2018-03-19T06:15:00.721Z,985.91
2018-03-19T06:16:00.715Z,985.93
2018-03-19T06:17:21.720Z,985.95
2018-03-19T06:18:00.694Z,985.95
2018-03-19T06:19:00.683Z,985.98
2018-03-19T06:20:00.677Z,985.92
2018-03-19T06:21:00.679Z,985.97
2018-03-19T06:22:00.655Z,985.93
2018-03-19T06:23:21.677Z,985.99
2018-03-19T06:24:00.645Z,985.98
2018-03-19T06:25:00.634Z,986.00
2018-03-19T06:26:00.638Z,986.01
2018-03-19T06:27:00.624Z,986.04
2018-03-19T06:28:00.612Z,986.06
2018-03-19T06:29:21.630Z,986.05
2018-03-19T06:30:00.603Z,986.10
2018-03-19T06:31:00.590Z,986.05
2018-03-19T06:32:00.578Z,986.05
2018-03-19T06:33:00.576Z,986.03
2018-03-19T06:34:00.558Z,986.05
2018-03-19T06:35:21.558Z,986.07
2018-03-19T06:36:00.542Z,986.03
2018-03-19T06:37:00.542Z,986.06
2018-03-19T06:38:00.543Z,986.07
2018-03-19T06:39:00.528Z,986.09
2018-03-19T06:40:00.517Z,986.08
2018-03-19T06:41:21.515Z,986.07
2018-03-19T06:42:00.506Z,986.12
2018-03-19T06:43:00.490Z,986.13
2018-03-19T06:44:00.478Z,986.13
2018-03-19T06:45:00.472Z,986.12
2018-03-19T06:46:00.464Z,986.12
2018-03-19T06:47:21.462Z,986.09
2018-03-19T06:48:00.446Z,986.12
2018-03-19T06:49:00.447Z,986.16
2018-03-19T06:50:00.435Z,986.14
2018-03-19T06:51:00.428Z,986.15
2018-03-19T06:52:00.414Z,986.15
2018-03-19T06:53:21.419Z,986.16
2018-03-19T06:54:00.405Z,986.19
2018-03-19T06:55:00.390Z,986.16
2018-03-19T06:56:00.383Z,986.20
2018-03-19T06:57:00.372Z,986.21
2018-03-19T06:58:00.363Z,986.27
2018-03-19T06:59:21.361Z,986.24
2018-03-19T07:00:00.348Z,986.22
2018-03-19T07:01:00.352Z,986.26
2018-03-19T07:02:00.335Z,986.17
2018-03-19T07:03:00.330Z,986.22
2018-03-19T07:04:00.320Z,986.19
2018-03-19T07:05:21.327Z,986.25
2018-03-19T07:06:00.304Z,986.21
2018-03-19T07:07:00.290Z,986.24
2018-03-19T07:08:00.284Z,986.24
2018-03-19T07:09:00.278Z,986.23
2018-03-19T07:10:00.268Z,986.20
2018-03-19T07:11:21.268Z,986.19
2018-03-19T07:12:00.253Z,986.26
2018-03-19T07:13:00.257Z,986.24
2018-03-19T07:14:00.244Z,986.28
2018-03-19T07:15:00.232Z,986.31
2018-03-19T07:16:00.273Z,986.31
2018-03-19T07:17:21.223Z,986.29
2018-03-19T07:18:00.209Z,986.34
2018-03-19T07:19:00.201Z,986.32
2018-03-19T07:20:00.189Z,986.35
2018-03-19T07:21:00.181Z,986.36
2018-03-19T07:22:00.168Z,986.35
2018-03-19T07:23:21.168Z,986.34
2018-03-19T07:24:00.155Z,986.37
2018-03-19T07:25:00.144Z,986.34
2018-03-19T07:26:00.149Z,986.41
2018-03-19T07:27:00.133Z,986.35
2018-03-19T07:28:00.126Z,986.37
2018-03-19T07:29:21.122Z,986.38
2018-03-19T07:30:00.112Z,986.34
2018-03-19T07:31:00.100Z,986.36
2018-03-19T07:32:00.091Z,986.39
2018-03-19T07:33:00.081Z,986.40
2018-03-19T07:34:00.075Z,986.38
2018-03-19T07:35:21.074Z,986.42
2018-03-19T07:36:00.058Z,986.41
2018-03-19T07:37:00.055Z,986.41
2018-03-19T07:38:00.047Z,986.44
2018-03-19T07:39:00.043Z,986.45
2018-03-19T07:40:00.037Z,986.45
2018-03-19T07:41:21.022Z,986.45
2018-03-19T07:42:00.011Z,986.47
2018-03-19T07:43:00.003Z,986.49
2018-03-19T07:44:00.030Z,986.49
2018-03-19T07:44:59.983Z,986.50
2018-03-19T07:45:59.975Z,986.49
2018-03-19T07:47:20.975Z,986.49
2018-03-19T07:47:59.960Z,986.48
2018-03-19T07:48:59.957Z,986.52
2018-03-19T07:49:59.950Z,986.51
2018-03-19T07:50:59.938Z,986.54
2018-03-19T07:51:59.931Z,986.51
2018-03-19T07:53:20.928Z,986.49
2018-03-19T07:53:59.912Z,986.50
2018-03-19T07:54:59.903Z,986.53
2018-03-19T07:55:59.896Z,986.50
2018-03-19T07:56:59.884Z,986.53
2018-03-19T07:57:59.882Z,986.52
2018-03-19T07:59:20.878Z,986.52
2018-03-19T07:59:59.934Z,986.54
2018-03-19T08:00:59.861Z,986.50
2018-03-19T08:01:59.852Z,986.51
2018-03-19T08:02:59.846Z,986.52
2018-03-19T08:03:59.838Z,986.55
2018-03-19T08:05:20.832Z,986.53
2018-03-19T08:05:59.817Z,986.53
2018-03-19T08:06:59.806Z,986.51
2018-03-19T08:07:59.798Z,986.49
2018-03-19T08:08:59.794Z,986.49
2018-03-19T08:09:59.782Z,986.50
2018-03-19T08:11:20.782Z,986.51
2018-03-19T08:11:59.772Z,986.52
2018-03-19T08:12:59.762Z,986.53
2018-03-19T08:13:59.753Z,986.50
2018-03-19T08:14:59.752Z,986.51
2018-03-19T08:15:59.738Z,986.52
2018-03-19T08:17:20.747Z,986.51
2018-03-19T08:17:59.726Z,986.53
2018-03-19T08:18:59.708Z,986.50
2018-03-19T08:19:59.702Z,986.48
2018-03-19T08:20:59.693Z,986.49
2018-03-19T08:21:59.683Z,986.50
2018-03-19T08:23:20.681Z,986.46
2018-03-19T08:23:59.676Z,986.45
2018-03-19T08:24:59.666Z,986.49
2018-03-19T08:25:59.659Z,986.50
2018-03-19T08:26:59.659Z,986.50
2018-03-19T08:27:59.649Z,986.50
2018-03-19T08:29:20.640Z,986.48
2018-03-19T08:29:59.630Z,986.50
2018-03-19T08:30:59.611Z,986.46
2018-03-19T08:31:59.605Z,986.47
2018-03-19T08:32:59.597Z,986.48
2018-03-19T08:33:59.588Z,986.50
2018-03-19T08:35:20.585Z,986.48
2018-03-19T08:35:59.597Z,986.50
2018-03-19T08:36:59.598Z,986.47
2018-03-19T08:37:59.692Z,986.55
2018-03-19T08:38:59.587Z,986.49
2018-03-19T08:39:59.577Z,986.52
2018-03-19T08:41:20.574Z,986.51
2018-03-19T08:41:59.528Z,986.50
2018-03-19T08:42:59.514Z,986.50
2018-03-19T08:43:59.511Z,986.47
2018-03-19T08:44:59.503Z,986.47
2018-03-19T08:45:59.495Z,986.47
2018-03-19T08:47:20.488Z,986.49
2018-03-19T08:47:59.476Z,986.50
2018-03-19T08:48:59.485Z,986.45
2018-03-19T08:49:59.466Z,986.43
2018-03-19T08:50:59.456Z,986.45
2018-03-19T08:51:59.447Z,986.43
2018-03-19T08:53:20.448Z,986.45
2018-03-19T08:53:59.478Z,986.46
2018-03-19T08:54:59.426Z,986.40
2018-03-19T08:55:59.416Z,986.43
2018-03-19T08:56:59.403Z,986.44
2018-03-19T08:57:59.394Z,986.41
2018-03-19T08:59:20.394Z,986.39
2018-03-19T08:59:59.380Z,986.37
2018-03-19T09:00:59.459Z,986.35
2018-03-19T09:01:59.366Z,986.33
2018-03-19T09:02:59.361Z,986.32
2018-03-19T09:03:59.355Z,986.31
2018-03-19T09:05:20.355Z,986.30
2018-03-19T09:05:59.337Z,986.30
2018-03-19T09:06:59.355Z,986.31
2018-03-19T09:07:59.316Z,986.34
2018-03-19T09:08:59.309Z,986.35
2018-03-19T09:09:59.304Z,986.33
2018-03-19T09:11:20.299Z,986.36
2018-03-19T09:11:59.285Z,986.36
2018-03-19T09:12:59.280Z,986.35
2018-03-19T09:13:59.276Z,986.32
2018-03-19T09:14:59.266Z,986.35
2018-03-19T09:15:59.259Z,986.38
2018-03-19T09:17:20.251Z,986.38
2018-03-19T09:17:59.238Z,986.37
2018-03-19T09:18:59.240Z,986.39
2018-03-19T09:19:59.219Z,986.42
2018-03-19T09:20:59.214Z,986.39
2018-03-19T09:21:59.206Z,986.44
2018-03-19T09:23:20.205Z,986.39
2018-03-19T09:23:59.188Z,986.41
2018-03-19T09:24:59.189Z,986.40
2018-03-19T09:25:59.190Z,986.37
2018-03-19T09:26:59.175Z,986.40
2018-03-19T09:27:59.206Z,986.38
2018-03-19T09:29:20.161Z,986.43
2018-03-19T09:29:59.142Z,986.45
2018-03-19T09:30:59.192Z,986.38
2018-03-19T09:31:59.126Z,986.41
2018-03-19T09:32:59.122Z,986.37
2018-03-19T09:33:59.112Z,986.43
2018-03-19T09:35:20.109Z,986.38
2018-03-19T09:35:59.094Z,986.40
2018-03-19T09:36:59.088Z,986.42
2018-03-19T09:37:59.077Z,986.42
2018-03-19T09:38:59.073Z,986.40
2018-03-19T09:39:59.067Z,986.35
2018-03-19T09:41:20.065Z,986.38
2018-03-19T09:41:59.050Z,986.38
2018-03-19T09:42:59.043Z,986.36
2018-03-19T09:43:59.056Z,986.32
2018-03-19T09:44:59.027Z,986.35
2018-03-19T09:45:59.015Z,986.35
2018-03-19T09:47:20.017Z,986.33
2018-03-19T09:47:59.000Z,986.38
2018-03-19T09:48:58.991Z,986.39
2018-03-19T09:49:58.994Z,986.35
2018-03-19T09:50:58.983Z,986.36
2018-03-19T09:51:58.972Z,986.37
2018-03-19T09:53:19.969Z,986.39
2018-03-19T09:53:58.962Z,986.43
2018-03-19T09:54:58.957Z,986.41
2018-03-19T09:55:58.944Z,986.39
2018-03-19T09:56:58.931Z,986.38
2018-03-19T09:57:58.924Z,986.38
2018-03-19T09:59:19.926Z,986.39
2018-03-19T09:59:58.908Z,986.39
2018-03-19T10:00:58.903Z,986.41
2018-03-19T10:01:58.892Z,986.41
2018-03-19T10:02:58.887Z,986.37
2018-03-19T10:03:58.884Z,986.43
2018-03-19T10:05:19.875Z,986.41
2018-03-19T10:05:58.867Z,986.43
2018-03-19T10:06:58.857Z,986.44
2018-03-19T10:07:58.859Z,986.43
2018-03-19T10:08:58.846Z,986.44
2018-03-19T10:09:58.840Z,986.42
2018-03-19T10:11:19.842Z,986.39
2018-03-19T10:11:58.822Z,986.43
2018-03-19T10:12:58.813Z,986.45
2018-03-19T10:13:58.806Z,986.37
2018-03-19T10:14:58.798Z,986.37
2018-03-19T10:15:58.794Z,986.41
2018-03-19T10:17:19.793Z,986.36
2018-03-19T10:17:58.783Z,986.38
2018-03-19T10:18:58.800Z,986.42
2018-03-19T10:19:58.772Z,986.39
2018-03-19T10:20:58.763Z,986.40
2018-03-19T10:21:58.760Z,986.41
2018-03-19T10:23:19.755Z,986.37
2018-03-19T10:23:58.743Z,986.37
2018-03-19T10:24:58.730Z,986.37
2018-03-19T10:25:58.725Z,986.39
2018-03-19T10:26:58.719Z,986.39
2018-03-19T10:27:58.710Z,986.37
2018-03-19T10:29:19.711Z,986.35
2018-03-19T10:29:58.699Z,986.35
2018-03-19T10:30:58.692Z,986.35
2018-03-19T10:31:58.688Z,986.38
2018-03-19T10:32:58.683Z,986.35
2018-03-19T10:33:58.679Z,986.36
2018-03-19T10:35:19.679Z,986.38
2018-03-19T10:35:58.667Z,986.37
2018-03-19T10:36:58.654Z,986.39
2018-03-19T10:37:58.655Z,986.44
2018-03-19T10:38:58.648Z,986.44
2018-03-19T10:39:58.655Z,986.43
2018-03-19T10:41:19.638Z,986.47
2018-03-19T10:41:58.623Z,986.48
2018-03-19T10:42:58.617Z,986.49
2018-03-19T10:43:58.609Z,986.52
2018-03-19T10:44:58.607Z,986.49
2018-03-19T10:45:58.601Z,986.51
2018-03-19T10:47:19.597Z,986.41
2018-03-19T10:47:58.591Z,986.47
2018-03-19T10:48:58.587Z,986.43
2018-03-19T10:49:58.574Z,986.44
2018-03-19T10:50:58.572Z,986.42
2018-03-19T10:51:58.568Z,986.43
2018-03-19T10:53:19.561Z,986.42
2018-03-19T10:53:58.557Z,986.38
2018-03-19T10:54:58.543Z,986.39
2018-03-19T10:55:58.541Z,986.40
2018-03-19T10:56:58.557Z,986.37
2018-03-19T10:57:58.523Z,986.36
2018-03-19T10:59:19.522Z,986.38
2018-03-19T10:59:58.530Z,986.39
2018-03-19T11:00:58.508Z,986.38
2018-03-19T11:01:58.506Z,986.39
2018-03-19T11:02:58.535Z,986.38
2018-03-19T11:03:58.500Z,986.43
2018-03-19T11:05:19.493Z,986.35
2018-03-19T11:05:58.484Z,986.35
2018-03-19T11:06:58.472Z,986.32
2018-03-19T11:07:58.467Z,986.32
2018-03-19T11:08:58.459Z,986.35
2018-03-19T11:09:58.453Z,986.31
2018-03-19T11:11:19.456Z,986.33
2018-03-19T11:11:58.508Z,986.29
2018-03-19T11:12:58.433Z,986.36
2018-03-19T11:13:58.429Z,986.31
2018-03-19T11:14:58.422Z,986.31
2018-03-19T11:15:58.415Z,986.36
2018-03-19T11:17:19.415Z,986.34
2018-03-19T11:17:58.401Z,986.32
2018-03-19T11:18:58.402Z,986.35
2018-03-19T11:19:58.428Z,986.32
2018-03-19T11:20:58.384Z,986.33
2018-03-19T11:21:58.385Z,986.31
2018-03-19T11:23:19.383Z,986.31
2018-03-19T11:23:58.376Z,986.28
2018-03-19T11:24:58.364Z,986.27
2018-03-19T11:25:58.360Z,986.25
2018-03-19T11:26:58.347Z,986.28
2018-03-19T11:27:58.346Z,986.29
2018-03-19T11:29:19.351Z,986.32
2018-03-19T11:29:58.331Z,986.32
2018-03-19T11:30:58.324Z,986.32
2018-03-19T11:31:58.318Z,986.33
2018-03-19T11:32:58.316Z,986.28
2018-03-19T11:33:58.306Z,986.21
2018-03-19T11:35:19.305Z,986.27
2018-03-19T11:35:58.299Z,986.25
2018-03-19T11:36:58.295Z,986.25
2018-03-19T11:37:58.286Z,986.24
2018-03-19T11:38:58.308Z,986.20
2018-03-19T11:39:58.302Z,986.24
2018-03-19T11:41:19.271Z,986.26
2018-03-19T11:41:58.261Z,986.26
2018-03-19T11:42:58.253Z,986.23
2018-03-19T11:43:58.245Z,986.23
2018-03-19T11:44:58.241Z,986.25
2018-03-19T11:45:58.229Z,986.24
2018-03-19T11:47:19.238Z,986.23
2018-03-19T11:47:58.219Z,986.26
2018-03-19T11:48:58.217Z,986.28
2018-03-19T11:49:58.210Z,986.27
2018-03-19T11:50:58.211Z,986.24
2018-03-19T11:51:58.204Z,986.33
2018-03-19T11:53:19.195Z,986.28
2018-03-19T11:53:58.190Z,986.29
2018-03-19T11:54:58.187Z,986.24
2018-03-19T11:55:58.212Z,986.29
2018-03-19T11:56:58.170Z,986.31
2018-03-19T11:57:58.158Z,986.28
2018-03-19T11:59:19.161Z,986.26
2018-03-19T11:59:58.144Z,986.26
2018-03-19T12:00:58.140Z,986.23
2018-03-19T12:01:58.138Z,986.21
2018-03-19T12:02:58.126Z,986.22
2018-03-19T12:03:58.119Z,986.22
2018-03-19T12:05:19.124Z,986.27
2018-03-19T12:05:58.114Z,986.27
2018-03-19T12:06:58.104Z,986.21
2018-03-19T12:07:58.102Z,986.22
2018-03-19T12:08:58.090Z,986.23
2018-03-19T12:09:58.090Z,986.22
2018-03-19T12:11:19.086Z,986.21
2018-03-19T12:11:58.075Z,986.22
2018-03-19T12:12:58.073Z,986.26
2018-03-19T12:13:58.054Z,986.25
2018-03-19T12:14:58.051Z,986.24
2018-03-19T12:15:58.041Z,986.26
2018-03-19T12:17:19.040Z,986.28
2018-03-19T12:17:58.031Z,986.23
2018-03-19T12:18:58.022Z,986.25
2018-03-19T12:19:58.014Z,986.19
2018-03-19T12:20:58.008Z,986.21
2018-03-19T12:21:58.021Z,986.20
2018-03-19T12:23:19.003Z,986.15
2018-03-19T12:23:57.993Z,986.17
2018-03-19T12:24:57.991Z,986.22
2018-03-19T12:25:57.982Z,986.18
2018-03-19T12:26:57.972Z,986.18
2018-03-19T12:27:57.963Z,986.13